createdAt,value
2022-09-06T00:01:46.273Z,78713.31
2022-09-06T00:04:16.274Z,78723.72
2022-09-06T00:06:47.533Z,78736.25
2022-09-06T00:09:17.666Z,78701.72
2022-09-06T00:11:47.641Z,78706.78
2022-09-06T00:14:17.798Z,78727.06
2022-09-06T00:16:48.245Z,78731.13
2022-09-06T00:19:18.290Z,78742.44
2022-09-06T00:21:48.152Z,78730.69
2022-09-06T00:24:18.189Z,78732.84
2022-09-06T00:26:48.218Z,78742.44
2022-09-06T00:29:19.586Z,78759.63
2022-09-06T00:31:49.674Z,78717.09
2022-09-06T00:34:19.457Z,78758.66
2022-09-06T00:36:50.221Z,78737.94
2022-09-06T00:39:20.468Z,78748.00
2022-09-06T00:41:51.137Z,78756.81
2022-09-06T00:44:21.580Z,78764.13
2022-09-06T00:46:55.969Z,78763.34
2022-09-06T00:49:33.156Z,78759.63
2022-09-06T00:52:11.188Z,78766.16
2022-09-06T00:54:43.119Z,78736.53
2022-09-06T00:57:15.122Z,78769.47
2022-09-06T00:59:47.680Z,78761.53
2022-09-06T01:02:18.434Z,78762.84
2022-09-06T01:04:52.651Z,78782.69
2022-09-06T01:07:48.445Z,78786.19
2022-09-06T01:10:42.722Z,78788.28
2022-09-06T01:13:22.702Z,78794.81
2022-09-06T01:16:15.724Z,78789.50
2022-09-06T01:19:05.436Z,78798.69
2022-09-06T01:21:47.765Z,78799.50
2022-09-06T01:24:21.073Z,78808.13
2022-09-06T01:27:17.961Z,78803.03
2022-09-06T01:30:02.668Z,78808.78
2022-09-06T01:33:13.816Z,78802.88
2022-09-06T01:36:05.017Z,78808.72
2022-09-06T01:38:36.205Z,78799.00
2022-09-06T01:41:09.214Z,78809.53
2022-09-06T01:43:45.120Z,78808.41
2022-09-06T01:46:37.724Z,78809.28
2022-09-06T01:49:26.472Z,78820.75
2022-09-06T01:52:03.242Z,78816.84
2022-09-06T01:54:58.980Z,78820.41
2022-09-06T01:57:56.790Z,78832.81
2022-09-06T02:00:30.181Z,78819.00
2022-09-06T02:03:21.948Z,78830.72
2022-09-06T02:06:00.522Z,78824.34
2022-09-06T02:09:05.398Z,78823.72
2022-09-06T02:11:43.746Z,78831.66
2022-09-06T02:14:22.622Z,78824.56
2022-09-06T02:16:58.442Z,78842.50
2022-09-06T02:20:15.391Z,78841.59
2022-09-06T02:22:48.555Z,78844.03
2022-09-06T02:25:29.851Z,78831.53
2022-09-06T02:28:00.414Z,78846.97
2022-09-06T02:30:33.905Z,78845.41
2022-09-06T02:33:17.189Z,78850.25
2022-09-06T02:35:53.943Z,78830.56
2022-09-06T02:38:29.149Z,78846.19
2022-09-06T02:41:00.232Z,78838.06
2022-09-06T02:43:33.028Z,78848.38
2022-09-06T02:46:16.262Z,78860.22
2022-09-06T02:48:48.314Z,78857.28
2022-09-06T02:51:20.196Z,78850.38
2022-09-06T02:53:50.494Z,78861.75
2022-09-06T02:56:23.870Z,78849.03
2022-09-06T02:58:54.725Z,78851.63
2022-09-06T03:01:25.728Z,78868.41
2022-09-06T03:03:56.174Z,78865.94
2022-09-06T03:06:26.718Z,78878.69
2022-09-06T03:08:57.104Z,78870.34
2022-09-06T03:11:28.973Z,78878.94
2022-09-06T03:13:59.533Z,78880.06
2022-09-06T03:16:29.854Z,78880.47
2022-09-06T03:19:06.145Z,78878.22
2022-09-06T03:21:36.806Z,78889.13
2022-09-06T03:24:07.357Z,78898.31
2022-09-06T03:26:42.085Z,78891.53
2022-09-06T03:29:14.941Z,78862.16
2022-09-06T03:31:48.082Z,78879.19
2022-09-06T03:34:19.762Z,78903.63
2022-09-06T03:36:50.016Z,78889.06
2022-09-06T03:39:20.105Z,78896.09
2022-09-06T03:41:51.745Z,78901.78
2022-09-06T03:44:26.536Z,78900.94
2022-09-06T03:46:57.213Z,78907.91
2022-09-06T03:49:27.595Z,78912.09
2022-09-06T03:51:58.643Z,78901.38
2022-09-06T03:54:30.612Z,78921.06
2022-09-06T03:57:02.646Z,78926.75
2022-09-06T03:59:34.636Z,78922.47
2022-09-06T04:02:10.832Z,78932.66
2022-09-06T04:04:42.349Z,78919.50
2022-09-06T04:07:16.094Z,78922.53
2022-09-06T04:09:51.824Z,78933.66
2022-09-06T04:12:32.420Z,78934.69
2022-09-06T04:15:03.791Z,78949.94
2022-09-06T04:17:34.364Z,78931.44
2022-09-06T04:20:06.267Z,78937.03
2022-09-06T04:22:37.669Z,78935.22
2022-09-06T04:25:11.030Z,78941.44
2022-09-06T04:27:42.014Z,78942.72
2022-09-06T04:30:13.366Z,78928.06
2022-09-06T04:32:43.908Z,78942.09
2022-09-06T04:35:17.528Z,78939.09
2022-09-06T04:37:48.227Z,78940.78
2022-09-06T04:40:20.163Z,78920.13
2022-09-06T04:42:50.639Z,78960.00
2022-09-06T04:45:20.981Z,78955.97
2022-09-06T04:47:55.367Z,78933.63
2022-09-06T04:50:28.614Z,78960.19
2022-09-06T04:53:15.238Z,78956.66
2022-09-06T04:55:46.091Z,78954.28
2022-09-06T04:58:16.436Z,78958.88
2022-09-06T05:00:48.464Z,78961.69
2022-09-06T05:03:19.114Z,78956.13
2022-09-06T05:06:05.712Z,78953.78
2022-09-06T05:08:38.230Z,78953.69
2022-09-06T05:11:13.412Z,78947.88
2022-09-06T05:13:48.328Z,78959.47
2022-09-06T05:16:19.717Z,78955.47
2022-09-06T05:18:50.601Z,78938.53
2022-09-06T05:21:23.335Z,78958.44
2022-09-06T05:24:00.168Z,78961.78
2022-09-06T05:26:30.879Z,78947.28
2022-09-06T05:29:01.198Z,78945.53
2022-09-06T05:31:37.898Z,78954.97
2022-09-06T05:34:11.767Z,78959.75
2022-09-06T05:36:45.836Z,78951.81
2022-09-06T05:39:22.590Z,78946.78
2022-09-06T05:41:57.224Z,78953.16
2022-09-06T05:44:27.763Z,78944.13
2022-09-06T05:47:01.610Z,78947.34
2022-09-06T05:49:36.777Z,78953.69
2022-09-06T05:52:08.263Z,78924.47
2022-09-06T05:54:43.826Z,78940.75
2022-09-06T05:57:14.426Z,78930.19
2022-09-06T05:59:46.805Z,78929.47
2022-09-06T06:02:29.600Z,78958.13
2022-09-06T06:05:06.937Z,78950.16
2022-09-06T06:07:44.565Z,78939.53
2022-09-06T06:10:24.228Z,78945.44
2022-09-06T06:12:58.626Z,78949.91
2022-09-06T06:15:31.787Z,78941.09
2022-09-06T06:18:04.343Z,78947.91
2022-09-06T06:20:39.493Z,78937.19
2022-09-06T06:23:17.921Z,78957.53
2022-09-06T06:25:49.742Z,78947.69
2022-09-06T06:28:20.757Z,78953.09
2022-09-06T06:31:01.497Z,78956.50
2022-09-06T06:33:35.526Z,78959.63
2022-09-06T06:38:57.824Z,78959.09
2022-09-06T06:41:36.701Z,78954.44
2022-09-06T06:44:29.500Z,78963.09
2022-09-06T06:47:06.925Z,78949.94
2022-09-06T06:49:37.741Z,78959.22
2022-09-06T06:52:15.631Z,78945.25
2022-09-06T06:54:54.302Z,78943.97
2022-09-06T06:57:27.844Z,78944.41
2022-09-06T06:59:58.928Z,78939.19
2022-09-06T07:02:29.374Z,78937.13
2022-09-06T07:07:56.845Z,78951.53
2022-09-06T07:10:35.566Z,78945.19
2022-09-06T07:13:12.510Z,78938.97
2022-09-06T07:15:46.869Z,78939.44
2022-09-06T07:18:21.599Z,78926.97
2022-09-06T07:24:08.990Z,78945.84
2022-09-06T07:29:39.272Z,78926.31
2022-09-06T07:32:14.767Z,78937.13
2022-09-06T07:34:46.119Z,78925.19
2022-09-06T07:37:24.736Z,78922.38
2022-09-06T07:39:55.331Z,78925.34
2022-09-06T07:42:42.872Z,78928.97
2022-09-06T07:45:13.961Z,78928.50
2022-09-06T07:47:59.593Z,78911.94
2022-09-06T07:50:49.176Z,78922.81
2022-09-06T07:53:29.781Z,78926.75
2022-09-06T07:56:24.008Z,78924.56
2022-09-06T07:58:57.318Z,78913.69
2022-09-06T08:01:34.129Z,78911.34
2022-09-06T08:04:15.309Z,78921.47
2022-09-06T08:09:44.248Z,78903.69
2022-09-06T08:12:16.811Z,78900.34
2022-09-06T08:14:51.779Z,78896.88
2022-09-06T08:17:24.158Z,78908.41
2022-09-06T08:19:56.691Z,78896.50
2022-09-06T08:22:29.214Z,78901.63
2022-09-06T08:25:01.578Z,78900.22
2022-09-06T08:27:35.435Z,78874.34
2022-09-06T08:30:12.986Z,78874.00
2022-09-06T08:32:45.261Z,78889.34
2022-09-06T08:35:25.927Z,78898.81
2022-09-06T08:38:03.083Z,78896.94
2022-09-06T08:40:36.420Z,78892.19
2022-09-06T08:43:22.005Z,78881.91
2022-09-06T08:46:04.613Z,78889.34
2022-09-06T08:48:46.180Z,78876.31
2022-09-06T08:51:33.353Z,78891.06
2022-09-06T08:54:46.466Z,78863.34
2022-09-06T08:58:00.326Z,78886.34
2022-09-06T09:00:37.921Z,78866.00
2022-09-06T09:03:31.470Z,78875.38
2022-09-06T09:06:24.410Z,78864.56
2022-09-06T09:09:11.886Z,78882.88
2022-09-06T09:11:54.524Z,78865.22
2022-09-06T09:14:40.334Z,78870.94
2022-09-06T09:17:34.159Z,78867.00
2022-09-06T09:20:12.703Z,78856.56
2022-09-06T09:22:48.415Z,78847.59
2022-09-06T09:25:27.878Z,78851.03
2022-09-06T09:28:32.150Z,78835.66
2022-09-06T09:31:19.631Z,78852.50
2022-09-06T09:34:03.303Z,78841.81
2022-09-06T09:36:36.304Z,78851.19
2022-09-06T09:39:16.956Z,78853.53
2022-09-06T09:41:55.641Z,78858.25
2022-09-06T09:47:38.308Z,78833.94
2022-09-06T09:50:32.056Z,78839.69
2022-09-06T09:53:17.198Z,78836.53
2022-09-06T09:55:50.638Z,78840.78
2022-09-06T09:58:24.895Z,78847.56
2022-09-06T10:01:23.092Z,78851.03
2022-09-06T10:09:51.205Z,78839.34
2022-09-06T10:12:44.715Z,78836.34
2022-09-06T10:15:38.603Z,78840.19
2022-09-06T10:18:23.006Z,78833.53
2022-09-06T10:21:03.126Z,78835.25
2022-09-06T10:26:58.861Z,78827.72
2022-09-06T10:29:55.532Z,78827.50
2022-09-06T10:32:48.022Z,78820.59
2022-09-06T10:35:21.915Z,78826.00
2022-09-06T10:38:24.334Z,78831.16
2022-09-06T10:41:32.397Z,78823.59
2022-09-06T10:44:38.088Z,78808.06
2022-09-06T10:47:20.793Z,78814.25
2022-09-06T10:50:00.384Z,78801.16
2022-09-06T10:52:37.759Z,78812.78
2022-09-06T10:55:13.061Z,78806.47
2022-09-06T11:00:49.618Z,78818.19
2022-09-06T11:03:58.328Z,78801.56
2022-09-06T11:06:39.134Z,78820.66
2022-09-06T11:09:44.580Z,78811.22
2022-09-06T11:13:00.388Z,78802.63
2022-09-06T11:15:37.776Z,78813.81
2022-09-06T11:18:20.096Z,78820.94
2022-09-06T11:21:13.516Z,78817.31
2022-09-06T11:24:27.672Z,78817.50
2022-09-06T11:27:44.656Z,78814.84
2022-09-06T11:30:20.330Z,78816.19
2022-09-06T11:33:09.042Z,78821.34
2022-09-06T11:35:45.643Z,78805.38
2022-09-06T11:38:29.029Z,78822.00
2022-09-06T11:41:13.849Z,78795.31
2022-09-06T11:44:12.752Z,78816.31
2022-09-06T11:46:44.676Z,78816.81
2022-09-06T11:49:42.324Z,78823.88
2022-09-06T11:52:52.481Z,78816.13
2022-09-06T11:55:34.921Z,78819.00
2022-09-06T11:58:14.595Z,78812.53
2022-09-06T12:00:46.799Z,78799.84
2022-09-06T12:04:06.980Z,78810.97
2022-09-06T12:07:10.271Z,78818.44
2022-09-06T12:09:49.653Z,78813.13
2022-09-06T12:12:57.961Z,78824.41
2022-09-06T12:16:00.767Z,78820.59
2022-09-06T12:18:49.656Z,78817.97
2022-09-06T12:21:38.809Z,78825.28
2022-09-06T12:24:29.779Z,78827.06
2022-09-06T12:27:19.949Z,78828.22
2022-09-06T12:30:11.384Z,78813.25
2022-09-06T12:33:04.263Z,78814.72
2022-09-06T12:35:59.925Z,78822.00
2022-09-06T12:38:35.476Z,78829.19
2022-09-06T12:41:09.810Z,78820.53
2022-09-06T12:43:45.527Z,78820.16
2022-09-06T12:46:19.960Z,78824.19
2022-09-06T12:49:16.108Z,78830.81
2022-09-06T12:51:51.437Z,78805.66
2022-09-06T12:54:25.966Z,78826.34
2022-09-06T12:57:23.200Z,78830.06
2022-09-06T12:59:57.664Z,78827.84
2022-09-06T13:03:17.380Z,78827.28
2022-09-06T13:05:51.325Z,78830.25
2022-09-06T13:08:43.298Z,78819.72
2022-09-06T13:11:18.810Z,78836.03
2022-09-06T13:13:59.028Z,78813.59
2022-09-06T13:16:38.495Z,78835.03
2022-09-06T13:19:35.477Z,78842.41
2022-09-06T13:22:09.053Z,78848.78
2022-09-06T13:24:51.432Z,78839.91
2022-09-06T13:27:31.883Z,78840.66
2022-09-06T13:30:12.413Z,78838.50
2022-09-06T13:32:51.165Z,78827.75
2022-09-06T13:35:31.520Z,78842.28
2022-09-06T13:38:23.233Z,78840.59
2022-09-06T13:41:14.602Z,78832.34
2022-09-06T13:43:59.082Z,78837.00
2022-09-06T13:46:37.962Z,78831.28
2022-09-06T13:49:14.210Z,78824.19
2022-09-06T13:51:49.918Z,78810.94
2022-09-06T13:54:22.377Z,78829.25
2022-09-06T13:56:53.207Z,78832.44
2022-09-06T13:59:26.180Z,78841.84
2022-09-06T14:02:11.993Z,78818.38
2022-09-06T14:04:48.001Z,78837.78
2022-09-06T14:07:19.669Z,78829.84
2022-09-06T14:09:51.695Z,78856.72
2022-09-06T14:15:13.985Z,78838.50
2022-09-06T14:17:45.860Z,78832.94
2022-09-06T14:20:16.571Z,78848.06
2022-09-06T14:22:54.196Z,78843.66
2022-09-06T14:25:27.394Z,78847.19
2022-09-06T14:27:59.009Z,78856.31
2022-09-06T14:30:31.098Z,78861.94
2022-09-06T14:33:02.752Z,78867.09
2022-09-06T14:35:37.367Z,78867.31
2022-09-06T14:38:10.600Z,78872.56
2022-09-06T14:40:41.872Z,78873.38
2022-09-06T14:43:12.841Z,78870.44
2022-09-06T14:45:47.522Z,78849.19
2022-09-06T14:48:20.932Z,78853.19
2022-09-06T14:50:51.776Z,78876.91
2022-09-06T14:53:39.674Z,78861.44
2022-09-06T14:56:24.006Z,78892.88
2022-09-06T14:58:58.549Z,78864.28
2022-09-06T15:01:35.784Z,78899.97
2022-09-06T15:04:12.189Z,78877.81
2022-09-06T15:06:49.219Z,78907.47
2022-09-06T15:09:23.963Z,78903.72
2022-09-06T15:11:55.082Z,78904.94
2022-09-06T15:14:34.079Z,78903.72
2022-09-06T15:17:08.178Z,78879.78
2022-09-06T15:19:40.494Z,78885.59
2022-09-06T15:22:10.132Z,78907.66
2022-09-06T15:24:39.776Z,78870.09
2022-09-06T15:27:13.384Z,78892.38
2022-09-06T15:29:44.096Z,78911.50
2022-09-06T15:32:14.062Z,78912.31
2022-09-06T15:34:48.203Z,78897.94
2022-09-06T15:37:18.912Z,78908.41
2022-09-06T15:39:48.709Z,78899.25
2022-09-06T15:42:20.055Z,78901.19
2022-09-06T15:44:54.867Z,78895.34
2022-09-06T15:47:27.916Z,78893.91
2022-09-06T15:50:00.517Z,78840.91
2022-09-06T15:52:31.500Z,78894.03
2022-09-06T15:55:19.774Z,78898.13
2022-09-06T15:57:58.630Z,78877.31
2022-09-06T16:00:28.664Z,78883.78
2022-09-06T16:03:00.563Z,78891.81
2022-09-06T16:08:24.561Z,78898.63
2022-09-06T16:10:54.391Z,78901.84
2022-09-06T16:13:30.411Z,78890.84
2022-09-06T16:16:03.423Z,78901.75
2022-09-06T16:18:37.457Z,78882.97
2022-09-06T16:21:14.920Z,78888.44
2022-09-06T16:23:51.464Z,78885.06
2022-09-06T16:26:35.703Z,78890.47
2022-09-06T16:29:22.546Z,78868.63
2022-09-06T16:32:02.131Z,78884.00
2022-09-06T16:34:33.561Z,78896.84
2022-09-06T16:37:13.950Z,78885.47
2022-09-06T16:39:45.351Z,78888.25
2022-09-06T16:42:19.864Z,78899.22
2022-09-06T16:44:51.393Z,78893.81
2022-09-06T16:47:22.388Z,78888.56
2022-09-06T16:49:51.983Z,78902.81
2022-09-06T16:52:21.454Z,78905.06
2022-09-06T16:54:53.922Z,78878.00
2022-09-06T16:57:32.827Z,78884.44
2022-09-06T17:00:07.358Z,78887.88
2022-09-06T17:02:43.709Z,78891.38
2022-09-06T17:05:18.264Z,78904.06
2022-09-06T17:07:49.413Z,78897.81
2022-09-06T17:10:20.291Z,78895.94
2022-09-06T17:12:54.515Z,78905.22
2022-09-06T17:15:26.906Z,78892.31
2022-09-06T17:17:56.632Z,78910.28
2022-09-06T17:20:26.385Z,78900.38
2022-09-06T17:22:59.937Z,78892.38
2022-09-06T17:25:29.613Z,78901.03
2022-09-06T17:28:03.442Z,78898.50
2022-09-06T17:30:33.813Z,78904.53
2022-09-06T17:33:12.668Z,78897.03
2022-09-06T17:35:45.379Z,78866.25
2022-09-06T17:38:18.420Z,78898.94
2022-09-06T17:41:00.415Z,78893.53
2022-09-06T17:43:30.702Z,78886.69
2022-09-06T17:46:04.827Z,78881.47
2022-09-06T17:48:39.448Z,78898.47
2022-09-06T17:51:11.446Z,78892.25
2022-09-06T17:53:45.265Z,78894.84
2022-09-06T17:56:17.760Z,78895.00
2022-09-06T17:59:17.995Z,78890.44
2022-09-06T18:01:52.040Z,78891.06
2022-09-06T18:04:23.638Z,78872.97
2022-09-06T18:06:58.170Z,78853.34
2022-09-06T18:09:28.436Z,78888.88
2022-09-06T18:11:59.644Z,78885.53
2022-09-06T18:14:30.609Z,78890.34
2022-09-06T18:18:38.141Z,78877.91
2022-09-06T18:21:14.069Z,78880.59
2022-09-06T18:24:58.426Z,78892.03
2022-09-06T18:27:32.833Z,78874.56
2022-09-06T18:34:01.306Z,78882.34
2022-09-06T18:36:32.575Z,78884.59
2022-09-06T18:39:09.511Z,78858.44
2022-09-06T18:41:58.560Z,78881.84
2022-09-06T18:44:35.754Z,78878.66
2022-09-06T18:47:13.046Z,78871.97
2022-09-06T18:49:47.878Z,78863.97
2022-09-06T18:52:22.008Z,78873.13
2022-09-06T18:54:52.677Z,78866.66
2022-09-06T18:57:24.125Z,78865.41
2022-09-06T18:59:54.812Z,78869.84
2022-09-06T19:02:28.799Z,78863.69
2022-09-06T19:05:00.758Z,78845.50
2022-09-06T19:07:30.893Z,78852.13
2022-09-06T19:10:04.677Z,78844.34
2022-09-06T19:12:35.739Z,78863.81
2022-09-06T19:15:08.167Z,78849.44
2022-09-06T19:17:39.432Z,78865.63
2022-09-06T19:20:13.764Z,78874.06
2022-09-06T19:22:46.600Z,78863.44
2022-09-06T19:25:18.071Z,78855.91
2022-09-06T19:27:49.018Z,78869.78
2022-09-06T19:30:32.888Z,78868.25
2022-09-06T19:33:03.762Z,78858.72
2022-09-06T19:35:47.141Z,78859.22
2022-09-06T19:38:37.400Z,78862.56
2022-09-06T19:41:20.742Z,78848.47
2022-09-06T19:43:57.677Z,78843.81
2022-09-06T19:46:30.048Z,78855.75
2022-09-06T19:49:01.908Z,78836.19
2022-09-06T19:51:32.884Z,78845.44
2022-09-06T19:54:09.472Z,78850.94
2022-09-06T19:56:39.582Z,78838.00
2022-09-06T19:59:12.749Z,78839.69
2022-09-06T20:01:47.834Z,78826.53
2022-09-06T20:04:18.409Z,78834.88
2022-09-06T20:06:48.911Z,78835.53
2022-09-06T20:09:19.401Z,78839.31
2022-09-06T20:11:49.858Z,78813.50
2022-09-06T20:14:21.909Z,78833.13
2022-09-06T20:16:53.569Z,78830.44
2022-09-06T20:19:27.164Z,78838.22
2022-09-06T20:21:58.837Z,78836.47
2022-09-06T20:24:29.691Z,78829.44
2022-09-06T20:27:00.315Z,78818.06
2022-09-06T20:29:30.921Z,78835.31
2022-09-06T20:32:03.894Z,78841.94
2022-09-06T20:34:35.714Z,78845.03
2022-09-06T20:37:10.768Z,78832.47
2022-09-06T20:39:42.377Z,78843.16
2022-09-06T20:42:12.984Z,78831.69
2022-09-06T20:44:42.848Z,78837.13
2022-09-06T20:47:14.332Z,78827.91
2022-09-06T20:49:44.563Z,78840.84
2022-09-06T20:52:15.511Z,78846.50
2022-09-06T20:54:45.508Z,78822.97
2022-09-06T20:57:16.012Z,78834.50
2022-09-06T20:59:46.294Z,78842.59
2022-09-06T21:02:16.011Z,78838.00
2022-09-06T21:04:45.889Z,78852.13
2022-09-06T21:07:16.070Z,78824.34
2022-09-06T21:09:45.777Z,78835.63
2022-09-06T21:12:15.393Z,78843.53
2022-09-06T21:14:45.501Z,78853.19
2022-09-06T21:17:15.402Z,78819.91
2022-09-06T21:19:45.226Z,78855.91
2022-09-06T21:22:15.043Z,78838.09
2022-09-06T21:24:44.928Z,78841.56
2022-09-06T21:27:16.299Z,78845.44
2022-09-06T21:29:47.665Z,78848.38
2022-09-06T21:32:17.480Z,78845.94
2022-09-06T21:34:47.917Z,78848.38
2022-09-06T21:37:19.272Z,78815.63
2022-09-06T21:39:49.698Z,78832.03
2022-09-06T21:42:20.013Z,78826.00
2022-09-06T21:44:49.637Z,78829.59
2022-09-06T21:47:19.410Z,78823.41
2022-09-06T21:49:49.435Z,78841.66
2022-09-06T21:52:18.971Z,78829.28
2022-09-06T21:54:48.598Z,78847.59
2022-09-06T21:57:18.819Z,78826.66
2022-09-06T21:59:48.382Z,78833.22
2022-09-06T22:02:18.502Z,78846.81
2022-09-06T22:04:48.545Z,78831.03
2022-09-06T22:07:18.592Z,78842.00
2022-09-06T22:09:50.100Z,78831.53
2022-09-06T22:12:20.538Z,78835.09
2022-09-06T22:14:51.984Z,78827.03
2022-09-06T22:17:22.719Z,78821.78
2022-09-06T22:19:52.626Z,78838.06
2022-09-06T22:22:22.242Z,78846.72
2022-09-06T22:24:52.008Z,78852.09
2022-09-06T22:27:22.163Z,78837.50
2022-09-06T22:29:52.573Z,78855.16
2022-09-06T22:32:22.739Z,78843.53
2022-09-06T22:34:53.307Z,78864.03
2022-09-06T22:37:23.411Z,78858.66
2022-09-06T22:39:53.516Z,78856.69
2022-09-06T22:42:23.200Z,78854.56
2022-09-06T22:44:52.912Z,78854.56
2022-09-06T22:47:23.036Z,78853.19
2022-09-06T22:49:53.155Z,78853.19
2022-09-06T22:52:23.569Z,78845.34
2022-09-06T22:54:53.217Z,78854.66
2022-09-06T22:57:23.027Z,78846.06
2022-09-06T22:59:52.954Z,78824.56
2022-09-06T23:02:22.479Z,78853.03
2022-09-06T23:04:56.109Z,78849.88
2022-09-06T23:07:26.145Z,78856.56
2022-09-06T23:09:55.675Z,78858.22
2022-09-06T23:12:25.469Z,78865.94
2022-09-06T23:14:55.287Z,78875.59
2022-09-06T23:17:25.309Z,78862.13
2022-09-06T23:19:55.086Z,78858.84
2022-09-06T23:22:24.852Z,78870.13
2022-09-06T23:24:54.964Z,78885.34
2022-09-06T23:27:25.053Z,78882.78
2022-09-06T23:29:54.973Z,78877.66
2022-09-06T23:32:25.333Z,78874.97
2022-09-06T23:34:57.115Z,78882.34
2022-09-06T23:37:27.361Z,78885.25
2022-09-06T23:39:58.430Z,78859.94
2022-09-06T23:42:31.454Z,78866.56
2022-09-06T23:45:01.628Z,78886.13
2022-09-06T23:47:31.463Z,78880.03
2022-09-06T23:50:01.168Z,78893.47
2022-09-06T23:52:30.856Z,78890.66
2022-09-06T23:55:00.461Z,78877.19
2022-09-06T23:57:30.363Z,78885.69
